EW0184 Weather Reports


Display with metric or nautical units.
time (UTC)temp
F
wind
direction
speed
MPH
gust
MPH
rain 1hr
in
rain 24hr
in
rain mn
in
humidity
%
barometer
mb
20190624104547 67 338 0.0 5.0 0.00 0.00 0.00 18 1006.6
20190624103102 67 340 1.0 5.0 0.00 0.00 0.00 17 1006.4
20190624101530 68 21 1.0 5.0 0.00 0.00 0.00 16 1006.1
20190624100051 69 39 1.0 6.0 0.00 0.00 0.00 16 1006.1
20190624094619 69 27 1.0 4.0 0.00 0.00 0.00 16 1006.1
20190624093032 71 101 0.0 4.0 0.00 0.00 0.00 16 1006.0
20190624091534 71 69 1.0 5.0 0.00 0.00 0.00 14 1005.9
20190624090004 71 37 1.0 4.0 0.00 0.00 0.00 15 1005.8
20190624084502 72 190 0.0 4.0 0.00 0.00 0.00 15 1005.7
20190624081628 72 18 1.0 3.0 0.00 0.00 0.00 17 1005.5
20190624080131 73 31 0.0 2.0 0.00 0.00 0.00 18 1005.5
20190624074656 71 40 0.0 4.0 0.00 0.00 0.00 21 1005.5
20190624073226 67 46 0.0 3.0 0.00 0.00 0.00 26 1005.6
20190624071642 67 82 0.0 0.0 0.00 0.00 0.00 29 1005.6
20190624070110 68 82 0.0 1.0 0.00 0.00 0.00 27 1005.6
20190624064717 68 82 0.0 1.0 0.00 0.00 0.00 26 1005.5
20190624063117 68 243 0.0 1.0 0.00 0.00 0.00 26 1005.6
20190624061606 69 262 1.0 4.0 0.00 0.00 0.00 26 1005.5
20190624060111 68 40 0.0 2.0 0.00 0.00 0.00 27 1005.6
20190624054604 69 349 0.0 1.0 0.00 0.00 0.00 25 1005.6